createdAt,value
2022-09-16T00:00:43.583Z,19.20
2022-09-16T00:03:11.563Z,19.10
2022-09-16T00:05:45.380Z,19.10
2022-09-16T00:08:12.809Z,19.10
2022-09-16T00:10:39.465Z,19.10
2022-09-16T00:13:06.270Z,19.20
2022-09-16T00:15:33.061Z,19.20
2022-09-16T00:17:59.723Z,19.30
2022-09-16T00:20:26.704Z,19.30
2022-09-16T00:22:53.562Z,19.30
2022-09-16T00:25:20.333Z,19.30
2022-09-16T00:27:49.824Z,19.30
2022-09-16T00:30:16.951Z,19.20
2022-09-16T00:32:44.911Z,19.20
2022-09-16T00:35:11.800Z,19.20
2022-09-16T00:37:38.425Z,19.30
2022-09-16T00:40:05.692Z,19.30
2022-09-16T00:42:38.167Z,19.20
2022-09-16T00:45:22.915Z,19.20
2022-09-16T00:47:54.710Z,19.20
2022-09-16T00:50:30.944Z,19.10
2022-09-16T00:52:59.716Z,19.10
2022-09-16T00:55:33.661Z,19.00
2022-09-16T00:58:12.336Z,19.10
2022-09-16T01:00:39.253Z,19.10
2022-09-16T01:03:06.339Z,19.00
2022-09-16T01:05:33.977Z,19.10
2022-09-16T01:08:01.032Z,19.10
2022-09-16T01:10:27.750Z,19.10
2022-09-16T01:13:01.506Z,19.00
2022-09-16T01:15:56.368Z,19.10
2022-09-16T01:18:48.516Z,19.10
2022-09-16T01:21:47.528Z,19.00
2022-09-16T01:24:47.863Z,18.90
2022-09-16T01:27:29.848Z,18.90
2022-09-16T01:30:22.688Z,18.90
2022-09-16T01:32:58.751Z,18.90
2022-09-16T01:35:43.760Z,18.90
2022-09-16T01:38:26.115Z,18.90
2022-09-16T01:41:09.378Z,18.80
2022-09-16T01:43:43.296Z,18.80
2022-09-16T01:46:24.515Z,18.80
2022-09-16T01:49:15.383Z,18.70
2022-09-16T01:51:48.123Z,18.80
2022-09-16T01:54:32.034Z,18.70
2022-09-16T01:57:02.298Z,18.60
2022-09-16T01:59:37.766Z,18.60
2022-09-16T02:02:34.376Z,18.60
2022-09-16T02:05:04.909Z,18.70
2022-09-16T02:07:38.390Z,18.50
2022-09-16T02:10:22.231Z,18.50
2022-09-16T02:12:50.593Z,18.50
2022-09-16T02:15:22.168Z,18.50
2022-09-16T02:18:00.729Z,18.50
2022-09-16T02:20:30.460Z,18.50
2022-09-16T02:23:05.858Z,18.40
2022-09-16T02:25:37.858Z,18.50
2022-09-16T02:28:07.310Z,18.50
2022-09-16T02:30:35.774Z,18.50
2022-09-16T02:33:08.914Z,18.50
2022-09-16T02:35:38.781Z,18.60
2022-09-16T02:38:12.792Z,18.60
2022-09-16T02:40:47.576Z,18.60
2022-09-16T02:43:14.567Z,18.60
2022-09-16T02:45:52.186Z,18.60
2022-09-16T02:48:39.003Z,18.60
2022-09-16T02:51:37.156Z,18.60
2022-09-16T02:54:25.220Z,18.70
2022-09-16T02:56:54.112Z,18.70
2022-09-16T02:59:22.079Z,18.60
2022-09-16T03:01:48.694Z,18.60
2022-09-16T03:04:18.930Z,18.60
2022-09-16T03:06:46.755Z,18.60
2022-09-16T03:09:14.807Z,18.60
2022-09-16T03:11:59.231Z,18.70
2022-09-16T03:14:44.412Z,18.70
2022-09-16T03:17:28.160Z,18.70
2022-09-16T03:20:20.938Z,18.70
2022-09-16T03:22:51.346Z,18.70
2022-09-16T03:25:24.130Z,18.60
2022-09-16T03:27:55.076Z,18.70
2022-09-16T03:30:21.740Z,18.60
2022-09-16T03:32:58.668Z,18.50
2022-09-16T03:35:40.355Z,18.40
2022-09-16T03:38:08.266Z,18.40
2022-09-16T03:40:36.186Z,18.40
2022-09-16T03:43:11.758Z,18.50
2022-09-16T03:45:40.565Z,18.60
2022-09-16T03:48:07.397Z,18.60
2022-09-16T03:50:34.046Z,18.60
2022-09-16T03:53:00.786Z,18.60
2022-09-16T03:55:27.462Z,18.50
2022-09-16T03:57:54.603Z,18.50
2022-09-16T04:00:21.692Z,18.50
2022-09-16T04:02:48.281Z,18.50
2022-09-16T04:05:15.015Z,18.50
2022-09-16T04:07:41.587Z,18.50
2022-09-16T04:10:08.356Z,18.50
2022-09-16T04:12:34.962Z,18.50
2022-09-16T04:15:01.541Z,18.50
2022-09-16T04:17:31.793Z,18.50
2022-09-16T04:19:58.333Z,18.50
2022-09-16T04:22:24.964Z,18.40
2022-09-16T04:24:51.652Z,18.40
2022-09-16T04:27:18.299Z,18.40
2022-09-16T04:29:44.822Z,18.30
2022-09-16T04:32:11.429Z,18.40
2022-09-16T04:34:38.043Z,18.30
2022-09-16T04:37:04.669Z,18.30
2022-09-16T04:39:31.512Z,18.20
2022-09-16T04:41:59.506Z,18.10
2022-09-16T04:44:27.035Z,18.10
2022-09-16T04:46:53.984Z,18.10
2022-09-16T04:49:20.752Z,18.10
2022-09-16T04:51:47.295Z,18.10
2022-09-16T04:54:13.894Z,18.10
2022-09-16T04:56:40.549Z,18.10
2022-09-16T04:59:07.250Z,18.10
2022-09-16T05:01:39.000Z,18.10
2022-09-16T05:04:07.689Z,18.00
2022-09-16T05:06:38.428Z,17.90
2022-09-16T05:09:05.800Z,17.90
2022-09-16T05:11:35.792Z,17.90
2022-09-16T05:14:04.812Z,17.80
2022-09-16T05:16:32.775Z,17.90
2022-09-16T05:19:01.388Z,17.80
2022-09-16T05:21:28.583Z,17.90
2022-09-16T05:23:59.376Z,17.90
2022-09-16T05:26:28.686Z,17.90
2022-09-16T05:28:55.630Z,17.90
2022-09-16T05:31:23.679Z,17.90
2022-09-16T05:34:00.699Z,17.90
2022-09-16T05:36:30.334Z,17.90
2022-09-16T05:41:45.226Z,17.90
2022-09-16T05:44:12.201Z,18.10
2022-09-16T05:46:40.663Z,18.10
2022-09-16T05:49:08.508Z,18.10
2022-09-16T05:51:36.722Z,18.10
2022-09-16T05:54:03.382Z,18.20
2022-09-16T05:56:31.172Z,18.20
2022-09-16T05:59:00.095Z,18.10
2022-09-16T06:01:29.376Z,18.20
2022-09-16T06:03:56.263Z,18.20
2022-09-16T06:06:26.052Z,18.20
2022-09-16T06:08:54.794Z,18.10
2022-09-16T06:11:22.550Z,18.10
2022-09-16T06:13:55.814Z,18.10
2022-09-16T06:16:25.688Z,18.10
2022-09-16T06:18:57.365Z,18.20
2022-09-16T06:21:24.375Z,18.20
2022-09-16T06:23:51.006Z,18.20
2022-09-16T06:26:20.605Z,18.20
2022-09-16T06:28:47.859Z,18.20
2022-09-16T06:31:20.161Z,18.20
2022-09-16T06:33:46.838Z,18.30
2022-09-16T06:36:16.327Z,18.30
2022-09-16T06:38:43.420Z,18.30
2022-09-16T06:41:11.811Z,18.40
2022-09-16T06:43:39.176Z,18.50
2022-09-16T06:46:17.656Z,18.70
2022-09-16T06:48:50.501Z,18.70
2022-09-16T06:51:19.916Z,18.80
2022-09-16T06:53:46.802Z,18.90
2022-09-16T06:56:16.356Z,18.90
2022-09-16T06:58:45.108Z,19.00
2022-09-16T07:01:17.919Z,19.10
2022-09-16T07:03:46.943Z,19.10
2022-09-16T07:06:15.196Z,19.10
2022-09-16T07:08:42.090Z,19.20
2022-09-16T07:11:10.940Z,19.20
2022-09-16T07:13:37.986Z,19.20
2022-09-16T07:16:14.379Z,19.30
2022-09-16T07:18:42.320Z,19.30
2022-09-16T07:21:15.948Z,19.20
2022-09-16T07:23:43.552Z,19.30
2022-09-16T07:26:14.272Z,19.40
2022-09-16T07:28:43.117Z,19.50
2022-09-16T07:31:13.295Z,19.50
2022-09-16T07:33:45.495Z,19.50
2022-09-16T07:36:14.764Z,19.60
2022-09-16T07:38:41.556Z,19.70
2022-09-16T07:41:11.310Z,19.90
2022-09-16T07:43:39.112Z,19.90
2022-09-16T07:46:06.291Z,20.00
2022-09-16T07:48:35.181Z,20.10
2022-09-16T07:51:07.943Z,20.10
2022-09-16T07:53:35.430Z,20.20
2022-09-16T07:56:04.253Z,20.30
2022-09-16T07:58:31.188Z,20.40
2022-09-16T08:03:46.504Z,20.50
2022-09-16T08:06:16.039Z,20.60
2022-09-16T08:08:44.164Z,20.80
2022-09-16T08:11:14.440Z,20.90
2022-09-16T08:13:42.754Z,21.00
2022-09-16T08:16:12.565Z,21.00
2022-09-16T08:18:39.654Z,21.10
2022-09-16T08:21:15.044Z,21.10
2022-09-16T08:23:41.750Z,21.30
2022-09-16T08:26:10.695Z,21.20
2022-09-16T08:28:51.154Z,21.00
2022-09-16T08:31:24.457Z,20.90
2022-09-16T08:33:51.251Z,20.80
2022-09-16T08:36:21.212Z,20.80
2022-09-16T08:38:49.980Z,20.80
2022-09-16T08:41:41.492Z,20.80
2022-09-16T08:44:16.596Z,20.90
2022-09-16T08:46:57.175Z,20.80
2022-09-16T08:49:43.927Z,20.80
2022-09-16T08:52:21.261Z,20.90
2022-09-16T08:55:01.563Z,21.00
2022-09-16T08:57:31.638Z,21.10
2022-09-16T09:00:05.150Z,21.00
2022-09-16T09:02:55.728Z,21.10
2022-09-16T09:05:56.433Z,21.10
2022-09-16T09:08:33.859Z,21.10
2022-09-16T09:11:27.990Z,21.20
2022-09-16T09:14:18.700Z,21.30
2022-09-16T09:17:14.350Z,21.50
2022-09-16T09:19:52.062Z,21.60
2022-09-16T09:22:33.384Z,21.80
2022-09-16T09:25:37.777Z,21.90
2022-09-16T09:28:42.366Z,21.80
2022-09-16T09:31:15.099Z,21.70
2022-09-16T09:34:05.591Z,21.40
2022-09-16T09:36:47.189Z,21.20
2022-09-16T09:39:39.488Z,21.20
2022-09-16T09:42:11.390Z,21.20
2022-09-16T09:45:02.217Z,21.20
2022-09-16T09:48:24.281Z,21.30
2022-09-16T09:50:52.822Z,21.40
2022-09-16T09:53:35.496Z,21.60
2022-09-16T09:56:13.011Z,21.80
2022-09-16T09:59:01.892Z,22.00
2022-09-16T10:01:28.515Z,22.10
2022-09-16T10:03:57.208Z,22.30
2022-09-16T10:06:30.501Z,22.60
2022-09-16T10:08:59.071Z,22.60
2022-09-16T10:11:31.441Z,22.70
2022-09-16T10:14:01.232Z,22.70
2022-09-16T10:16:38.283Z,22.70
2022-09-16T10:19:19.367Z,22.80
2022-09-16T10:21:54.361Z,22.70
2022-09-16T10:24:38.581Z,22.80
2022-09-16T10:27:23.270Z,23.00
2022-09-16T10:30:16.701Z,23.10
2022-09-16T10:32:59.963Z,22.90
2022-09-16T10:35:29.170Z,22.50
2022-09-16T10:38:21.107Z,22.00
2022-09-16T10:41:24.354Z,21.70
2022-09-16T10:44:00.444Z,21.40
2022-09-16T10:46:28.424Z,21.30
2022-09-16T10:49:00.218Z,21.30
2022-09-16T10:51:27.795Z,21.30
2022-09-16T10:54:00.488Z,21.30
2022-09-16T10:56:30.109Z,21.50
2022-09-16T10:59:05.937Z,21.60
2022-09-16T11:01:54.240Z,21.60
2022-09-16T11:04:33.003Z,21.50
2022-09-16T11:07:09.972Z,21.40
2022-09-16T11:09:51.891Z,21.40
2022-09-16T11:12:55.309Z,21.30
2022-09-16T11:15:30.483Z,21.20
2022-09-16T11:18:22.147Z,21.10
2022-09-16T11:20:51.759Z,21.10
2022-09-16T11:23:39.817Z,21.00
2022-09-16T11:26:47.800Z,21.10
2022-09-16T11:29:27.572Z,21.30
2022-09-16T11:32:09.604Z,21.70
2022-09-16T11:34:45.521Z,22.00
2022-09-16T11:37:27.632Z,22.40
2022-09-16T11:40:04.572Z,22.60
2022-09-16T11:42:47.991Z,22.70
2022-09-16T11:45:35.826Z,22.60
2022-09-16T11:48:32.689Z,22.50
2022-09-16T11:51:02.041Z,22.40
2022-09-16T11:53:41.206Z,22.10
2022-09-16T11:56:15.333Z,21.90
2022-09-16T11:58:54.072Z,21.70
2022-09-16T12:01:44.517Z,21.50
2022-09-16T12:04:26.011Z,21.20
2022-09-16T12:07:12.726Z,21.10
2022-09-16T12:09:46.845Z,21.30
2022-09-16T12:12:17.813Z,21.50
2022-09-16T12:14:54.688Z,21.90
2022-09-16T12:17:25.431Z,22.30
2022-09-16T12:20:03.542Z,22.80
2022-09-16T12:22:38.154Z,23.30
2022-09-16T12:25:17.507Z,23.70
2022-09-16T12:27:52.867Z,24.10
2022-09-16T12:30:23.667Z,24.70
2022-09-16T12:33:14.837Z,25.10
2022-09-16T12:36:07.177Z,25.50
2022-09-16T12:38:33.895Z,26.00
2022-09-16T12:41:17.645Z,26.30
2022-09-16T12:43:53.061Z,26.50
2022-09-16T12:46:42.209Z,26.70
2022-09-16T12:49:48.123Z,26.70
2022-09-16T12:52:35.731Z,26.10
2022-09-16T12:55:37.116Z,25.70
2022-09-16T12:58:33.082Z,25.10
2022-09-16T13:01:23.479Z,24.60
2022-09-16T13:03:58.013Z,24.20
2022-09-16T13:06:32.228Z,23.80
2022-09-16T13:09:47.392Z,23.50
2022-09-16T13:12:44.638Z,23.30
2022-09-16T13:15:35.979Z,23.10
2022-09-16T13:18:22.241Z,22.80
2022-09-16T13:20:53.411Z,22.60
2022-09-16T13:23:28.022Z,22.50
2022-09-16T13:26:07.261Z,22.70
2022-09-16T13:28:35.255Z,23.40
2022-09-16T13:31:17.726Z,24.20
2022-09-16T13:33:49.916Z,25.20
2022-09-16T13:36:19.533Z,26.10
2022-09-16T13:38:51.706Z,26.60
2022-09-16T13:41:39.595Z,26.70
2022-09-16T13:44:30.444Z,26.70
2022-09-16T13:47:09.258Z,27.00
2022-09-16T13:49:44.795Z,27.30
2022-09-16T13:52:19.868Z,27.90
2022-09-16T13:57:58.453Z,29.20
2022-09-16T14:00:36.238Z,29.20
2022-09-16T14:03:37.811Z,29.00
2022-09-16T14:06:45.185Z,29.00
2022-09-16T14:09:28.503Z,29.10
2022-09-16T14:12:13.531Z,28.90
2022-09-16T14:14:47.547Z,28.70
2022-09-16T14:17:42.520Z,29.00
2022-09-16T14:20:18.471Z,29.50
2022-09-16T14:22:45.616Z,30.30
2022-09-16T14:25:36.069Z,30.70
2022-09-16T14:28:19.055Z,31.30
2022-09-16T14:30:52.637Z,31.80
2022-09-16T14:33:24.183Z,32.00
2022-09-16T14:35:53.631Z,31.80
2022-09-16T14:38:44.230Z,31.20
2022-09-16T14:41:10.415Z,30.50
2022-09-16T14:43:39.029Z,29.60
2022-09-16T14:46:08.025Z,29.00
2022-09-16T14:48:39.308Z,28.90
2022-09-16T14:51:20.382Z,29.30
2022-09-16T14:54:13.897Z,30.00
2022-09-16T14:56:40.775Z,30.70
2022-09-16T14:59:11.065Z,31.10
2022-09-16T15:01:38.599Z,31.20
2022-09-16T15:04:18.495Z,31.60
2022-09-16T15:06:52.633Z,32.10
2022-09-16T15:09:43.353Z,32.50
2022-09-16T15:12:23.667Z,33.00
2022-09-16T15:14:50.888Z,33.40
2022-09-16T15:17:20.632Z,33.70
2022-09-16T15:19:54.292Z,33.90
2022-09-16T15:22:21.691Z,34.00
2022-09-16T15:24:52.976Z,34.20
2022-09-16T15:27:29.258Z,34.30
2022-09-16T15:30:00.000Z,33.90
2022-09-16T15:32:31.981Z,33.30
2022-09-16T15:35:19.372Z,32.60
2022-09-16T15:37:45.982Z,32.40
2022-09-16T15:40:19.056Z,32.60
2022-09-16T15:42:46.443Z,33.00
2022-09-16T15:45:19.854Z,33.30
2022-09-16T15:48:06.909Z,33.50
2022-09-16T15:50:48.192Z,33.40
2022-09-16T15:53:31.974Z,32.80
2022-09-16T15:56:16.995Z,31.90
2022-09-16T15:58:47.624Z,30.70
2022-09-16T16:01:39.118Z,29.20
2022-09-16T16:04:09.936Z,27.90
2022-09-16T16:06:57.384Z,27.50
2022-09-16T16:09:27.202Z,27.60
2022-09-16T16:11:58.721Z,28.00
2022-09-16T16:14:32.140Z,28.50
2022-09-16T16:17:14.144Z,28.80
2022-09-16T16:19:46.274Z,29.10
2022-09-16T16:22:13.041Z,29.60
2022-09-16T16:24:40.203Z,29.90
2022-09-16T16:27:08.382Z,30.00
2022-09-16T16:29:34.973Z,30.20
2022-09-16T16:32:13.518Z,30.00
2022-09-16T16:34:42.758Z,29.90
2022-09-16T16:37:27.918Z,29.60
2022-09-16T16:39:58.699Z,29.20
2022-09-16T16:42:25.516Z,28.80
2022-09-16T16:44:52.355Z,28.20
2022-09-16T16:47:18.980Z,27.60
2022-09-16T16:49:49.563Z,27.00
2022-09-16T16:52:17.999Z,26.50
2022-09-16T16:54:45.762Z,25.90
2022-09-16T16:57:12.571Z,25.30
2022-09-16T16:59:39.099Z,24.90
2022-09-16T17:02:05.996Z,24.50
2022-09-16T17:04:32.842Z,24.00
2022-09-16T17:07:24.121Z,23.70
2022-09-16T17:09:46.306Z,23.40
2022-09-16T17:12:12.928Z,23.20
2022-09-16T17:14:40.748Z,23.00
2022-09-16T17:17:07.366Z,22.90
2022-09-16T17:19:34.008Z,22.70
2022-09-16T17:22:00.828Z,22.50
2022-09-16T17:24:27.444Z,22.30
2022-09-16T17:26:54.023Z,22.20
2022-09-16T17:29:20.590Z,22.00
2022-09-16T17:31:47.423Z,21.80
2022-09-16T17:34:16.050Z,21.60
2022-09-16T17:36:45.208Z,21.50
2022-09-16T17:39:15.084Z,21.30
2022-09-16T17:41:45.827Z,21.20
2022-09-16T17:44:13.845Z,21.10
2022-09-16T17:46:41.912Z,21.00
2022-09-16T17:49:18.005Z,20.80
2022-09-16T17:51:45.263Z,20.70
2022-09-16T17:54:12.188Z,20.50
2022-09-16T17:56:38.877Z,20.40
2022-09-16T17:59:05.794Z,20.30
2022-09-16T18:01:32.563Z,20.20
2022-09-16T18:03:59.711Z,20.10
2022-09-16T18:06:31.992Z,20.10
2022-09-16T18:09:04.350Z,20.00
2022-09-16T18:11:31.162Z,20.00
2022-09-16T18:14:00.170Z,19.90
2022-09-16T18:16:27.936Z,19.80
2022-09-16T18:18:56.666Z,19.70
2022-09-16T18:21:23.918Z,19.70
2022-09-16T18:23:56.247Z,19.60
2022-09-16T18:26:23.757Z,19.60
2022-09-16T18:29:09.709Z,19.60
2022-09-16T18:31:38.996Z,19.50
2022-09-16T18:34:05.820Z,19.50
2022-09-16T18:36:34.991Z,19.60
2022-09-16T18:39:01.779Z,19.50
2022-09-16T18:41:34.133Z,19.50
2022-09-16T18:44:05.012Z,19.50
2022-09-16T18:46:37.256Z,19.50
2022-09-16T18:49:04.326Z,19.50
2022-09-16T18:51:32.244Z,19.60
2022-09-16T18:54:02.101Z,19.60
2022-09-16T18:56:32.020Z,19.60
2022-09-16T18:59:22.220Z,19.50
2022-09-16T19:01:51.836Z,19.50
2022-09-16T19:04:20.620Z,19.60
2022-09-16T19:06:52.607Z,19.60
2022-09-16T19:09:21.441Z,19.60
2022-09-16T19:11:49.431Z,19.60
2022-09-16T19:14:16.693Z,19.60
2022-09-16T19:16:45.114Z,19.50
2022-09-16T19:19:14.064Z,19.50
2022-09-16T19:21:42.242Z,19.40
2022-09-16T19:24:16.220Z,19.50
2022-09-16T19:26:44.321Z,19.50
2022-09-16T19:29:12.693Z,19.30
2022-09-16T19:31:41.355Z,19.40
2022-09-16T19:34:08.619Z,19.30
2022-09-16T19:36:36.258Z,19.30
2022-09-16T19:39:04.355Z,19.30
2022-09-16T19:41:32.884Z,19.30
2022-09-16T19:44:02.433Z,19.20
2022-09-16T19:46:32.344Z,19.20
2022-09-16T19:48:59.089Z,19.10
2022-09-16T19:51:26.882Z,19.10
2022-09-16T19:53:54.024Z,19.20
2022-09-16T19:56:28.691Z,19.20
2022-09-16T19:58:55.927Z,19.20
2022-09-16T20:01:31.774Z,19.10
2022-09-16T20:03:59.545Z,19.10
2022-09-16T20:06:41.520Z,19.10
2022-09-16T20:09:13.409Z,19.20
2022-09-16T20:11:45.000Z,19.20
2022-09-16T20:14:20.605Z,19.20
2022-09-16T20:16:48.691Z,19.30
2022-09-16T20:19:17.611Z,19.20
2022-09-16T20:21:44.570Z,19.30
2022-09-16T20:24:18.156Z,19.30
2022-09-16T20:26:45.244Z,19.30
2022-09-16T20:29:11.878Z,19.40
2022-09-16T20:31:38.692Z,19.30
2022-09-16T20:34:05.861Z,19.40
2022-09-16T20:36:37.179Z,19.30
2022-09-16T20:39:05.448Z,19.30
2022-09-16T20:41:33.302Z,19.30
2022-09-16T20:44:00.581Z,19.30
2022-09-16T20:46:28.584Z,19.30
2022-09-16T20:48:56.614Z,19.30
2022-09-16T20:51:25.956Z,19.30
2022-09-16T20:53:54.816Z,19.40
2022-09-16T20:56:21.630Z,19.30
2022-09-16T20:58:48.514Z,19.30
2022-09-16T21:01:16.732Z,19.20
2022-09-16T21:03:44.756Z,19.20
2022-09-16T21:06:14.467Z,19.20
2022-09-16T21:08:42.335Z,19.20
2022-09-16T21:11:14.279Z,19.10
2022-09-16T21:13:42.106Z,19.10
2022-09-16T21:16:11.559Z,19.10
2022-09-16T21:18:39.239Z,19.00
2022-09-16T21:21:16.606Z,18.90
2022-09-16T21:23:46.244Z,18.90
2022-09-16T21:26:27.266Z,18.90
2022-09-16T21:28:59.161Z,18.90
2022-09-16T21:31:28.226Z,18.90
2022-09-16T21:33:56.777Z,18.90
2022-09-16T21:36:25.064Z,19.00
2022-09-16T21:38:52.041Z,18.90
2022-09-16T21:41:21.335Z,18.90
2022-09-16T21:43:55.847Z,18.90
2022-09-16T21:46:25.906Z,18.90
2022-09-16T21:48:55.441Z,18.90
2022-09-16T21:51:22.036Z,19.00
2022-09-16T21:53:48.704Z,19.00
2022-09-16T21:56:20.624Z,18.90
2022-09-16T21:58:48.902Z,18.90
2022-09-16T22:01:18.745Z,18.90
2022-09-16T22:03:47.493Z,18.90
2022-09-16T22:06:18.253Z,18.90
2022-09-16T22:08:48.910Z,18.90
2022-09-16T22:11:18.688Z,19.00
2022-09-16T22:13:45.338Z,18.90
2022-09-16T22:16:26.993Z,18.90
2022-09-16T22:18:55.746Z,18.70
2022-09-16T22:21:23.902Z,18.70
2022-09-16T22:23:50.536Z,18.70
2022-09-16T22:26:19.262Z,18.70
2022-09-16T22:28:46.543Z,18.70
2022-09-16T22:31:15.856Z,18.60
2022-09-16T22:33:44.291Z,18.60
2022-09-16T22:36:13.740Z,18.50
2022-09-16T22:38:44.546Z,18.50
2022-09-16T22:41:11.103Z,18.50
2022-09-16T22:43:39.879Z,18.50
2022-09-16T22:46:30.702Z,18.40
2022-09-16T22:48:59.183Z,18.40
2022-09-16T22:51:27.371Z,18.40
2022-09-16T22:53:54.329Z,18.40
2022-09-16T22:56:24.816Z,18.30
2022-09-16T22:58:53.847Z,18.30
2022-09-16T23:01:23.066Z,18.30
2022-09-16T23:03:57.137Z,18.30
2022-09-16T23:06:24.936Z,18.30
2022-09-16T23:08:52.702Z,18.30
2022-09-16T23:11:25.151Z,18.30
2022-09-16T23:13:54.043Z,18.30
2022-09-16T23:16:24.152Z,18.30
2022-09-16T23:18:50.961Z,18.30
2022-09-16T23:21:20.513Z,18.40
2022-09-16T23:23:49.977Z,18.40
2022-09-16T23:26:19.209Z,18.40
2022-09-16T23:28:47.540Z,18.40
2022-09-16T23:31:16.436Z,18.40
2022-09-16T23:33:44.136Z,18.40
2022-09-16T23:36:13.380Z,18.40
2022-09-16T23:38:41.237Z,18.40
2022-09-16T23:41:10.713Z,18.40
2022-09-16T23:43:38.610Z,18.40
2022-09-16T23:46:05.560Z,18.40
2022-09-16T23:48:32.646Z,18.40
2022-09-16T23:50:59.728Z,18.40
2022-09-16T23:53:26.361Z,18.40
2022-09-16T23:55:53.163Z,18.40
2022-09-16T23:58:20.315Z,18.40
